»·PEaware :: N246SC KSAN-KRAL

N246SC :: KSAN-KRAL

FLIGHT INFORMATION

Flight Status: Arrived
Operator: Privately registered:
United States
More flights under this callsign
Pilot: Will Z. (31117)
Aircraft: BEECH AIRCRAFT BARON
(BE58)
More flights by this aircraft type
Origin: KSAN San Diego Intl-Lindbergh
United States
Destination: KRAL Riverside Mun
United States
More flights between these airports :: More routes between these airports
Route: OCN V23 DANAH V363 POXKU V8 PDZ
File this flight plan on PilotEdge
Remarks: TEC route SANP19
Altitude:
(Current/Filed)
6,000ft
Speed:
(Current/Filed)
150kts
Departed: 13-Jan-21 08:07 PM
Arrived: 13-Jan-21 08:48 PM
Distance/Time
Traveled:
74nm/0:41
Distance/Time
To Go:
Arrived

Flight Plot

Page will automatically refresh every two minutes.


Map Options




Map Legend


Flown Route
Filed Route
Departure Airport
Arrival Airport
Navaid (VOR, NDB)
Fix

Horizontal Profiles

Position Reports

Time Latitude Longitude Heading Altitude Ground
Speed
13-Jan-21 19:42 32.734312 -117.185515 195 20ft 0kts
13-Jan-21 19:43 32.734312 -117.185515 195 20ft 0kts
13-Jan-21 19:44 32.734312 -117.185515 195 20ft 0kts
13-Jan-21 19:45 32.734312 -117.185515 195 20ft 0kts
13-Jan-21 19:46 32.734312 -117.185515 195 20ft 0kts
13-Jan-21 19:47 32.734312 -117.185515 195 20ft 0kts
13-Jan-21 19:48 32.734312 -117.185515 195 20ft 0kts
13-Jan-21 19:49 32.734312 -117.185515 195 20ft 0kts
13-Jan-21 19:50 32.734312 -117.185515 195 20ft 0kts
13-Jan-21 19:51 32.734312 -117.185515 195 20ft 0kts
13-Jan-21 19:52 32.734312 -117.185515 195 20ft 0kts
13-Jan-21 19:53 32.734312 -117.185515 195 20ft 0kts
13-Jan-21 19:54 32.734312 -117.185515 195 20ft 0kts
13-Jan-21 19:55 32.734312 -117.185515 195 20ft 0kts
13-Jan-21 19:56 32.734234 -117.185540 194 20ft 1kts
13-Jan-21 19:57 32.733801 -117.185651 190 20ft 0kts
13-Jan-21 19:58 32.733801 -117.185651 190 20ft 0kts
13-Jan-21 19:59 32.733795 -117.185653 194 20ft 0kts
13-Jan-21 20:00 32.733305 -117.183888 106 20ft 14kts
13-Jan-21 20:01 32.731872 -117.177902 108 20ft 17kts
13-Jan-21 20:02 32.731356 -117.176694 163 20ft 0kts
13-Jan-21 20:03 32.731356 -117.176694 163 20ft 0kts
13-Jan-21 20:04 32.731356 -117.176694 163 20ft 0kts
13-Jan-21 20:05 32.730537 -117.177108 263 20ft 12kts
13-Jan-21 20:06 32.738170 -117.202700 320 1025ft 107kts
13-Jan-21 20:07 32.768605 -117.231393 322 1929ft 152kts
13-Jan-21 20:08 32.807591 -117.267556 322 1942ft 182kts
13-Jan-21 20:09 32.848022 -117.306312 322 2309ft 174kts
13-Jan-21 20:10 32.885131 -117.342983 322 3258ft 156kts
13-Jan-21 20:11 32.918518 -117.376616 322 4432ft 144kts
13-Jan-21 20:12 32.949169 -117.408104 322 5647ft 134kts
13-Jan-21 20:13 32.987367 -117.422538 15 5949ft 166kts
13-Jan-21 20:14 33.037843 -117.418170 0 5928ft 180kts
13-Jan-21 20:15 33.090400 -117.418402 0 5923ft 182kts
13-Jan-21 20:16 33.142494 -117.418442 0 6007ft 181kts
13-Jan-21 20:17 33.195062 -117.418476 1 6001ft 183kts
13-Jan-21 20:18 33.247474 -117.420388 344 5989ft 186kts
13-Jan-21 20:19 33.284251 -117.469590 315 5961ft 200kts
13-Jan-21 20:20 33.325173 -117.517249 319 5968ft 201kts
13-Jan-21 20:21 33.366376 -117.565372 319 5964ft 202kts
13-Jan-21 20:22 33.407156 -117.613064 319 5957ft 199kts
13-Jan-21 20:23 33.448177 -117.659881 318 5992ft 198kts
13-Jan-21 20:24 33.489841 -117.703056 340 6002ft 193kts
13-Jan-21 20:25 33.543475 -117.708738 353 5985ft 191kts
13-Jan-21 20:26 33.597135 -117.717850 352 5983ft 191kts
13-Jan-21 20:27 33.650519 -117.726791 352 5982ft 191kts
13-Jan-21 20:28 33.702806 -117.742523 335 5988ft 191kts
13-Jan-21 20:29 33.752827 -117.767257 339 5984ft 192kts
13-Jan-21 20:30 33.804536 -117.783817 3 5967ft 191kts
13-Jan-21 20:31 33.856773 -117.772261 36 5958ft 193kts
13-Jan-21 20:32 33.873351 -117.710711 76 5972ft 197kts
13-Jan-21 20:33 33.888957 -117.647865 69 5962ft 182kts
13-Jan-21 20:34 33.901814 -117.598877 69 5976ft 130kts
13-Jan-21 20:35 33.913142 -117.553313 69 5978ft 147kts
13-Jan-21 20:36 33.928133 -117.505986 59 5972ft 151kts
13-Jan-21 20:37 33.923155 -117.454638 103 5986ft 157kts
13-Jan-21 20:38 33.910062 -117.402819 103 5643ft 163kts
13-Jan-21 20:39 33.896895 -117.349312 104 4965ft 167kts
13-Jan-21 20:40 33.890637 -117.295612 54 4103ft 160kts
13-Jan-21 20:41 33.925456 -117.285302 359 3984ft 110kts
13-Jan-21 20:42 33.958807 -117.290807 321 3994ft 151kts
13-Jan-21 20:43 33.963807 -117.339384 259 3971ft 116kts
13-Jan-21 20:44 33.950766 -117.372375 233 3107ft 118kts
13-Jan-21 20:45 33.944831 -117.406177 284 1831ft 111kts
13-Jan-21 20:46 33.950981 -117.436889 284 813ft 75kts
13-Jan-21 20:47 33.951289 -117.442219 260 788ft 5kts
13-Jan-21 20:48 33.950994 -117.444433 22 775ft 0kts

Navigation Log

Ident Type
Flight plan parsing failed, navigation log unavailable